Time;durP1;ratioP1;P1;durP2;ratioP2;P2;SDS_P1;SDS_P2;PMS_P1;PMS_P2;Temp;Humidity;BMP_temperature;BMP_pressure;BME280_temperature;BME280_humidity;BME280_pressure;Samples;Min_cycle;Max_cycle;Signal;HPM_P1;HPM_P2
2024/04/08 00:02:06;;;;;;;3.03;1.70;;;;;;;15.95;100.00;101141.66;5278995;28;20043;-74
2024/04/08 00:04:36;;;;;;;3.10;1.42;;;;;;;15.91;100.00;101136.84;5269436;28;20024;-75
2024/04/08 00:07:07;;;;;;;3.05;1.60;;;;;;;15.83;100.00;101126.16;5273635;28;20500;-74
2024/04/08 00:09:37;;;;;;;6.85;1.75;;;;;;;15.86;100.00;101114.94;5265246;28;20078;-76
2024/04/08 00:12:08;;;;;;;7.55;1.90;;;;;;;15.83;100.00;101116.19;5270916;28;20027;-75
2024/04/08 00:14:38;;;;;;;5.13;1.60;;;;;;;15.87;100.00;101122.06;5264718;28;20561;-74
2024/04/08 00:17:09;;;;;;;5.80;1.60;;;;;;;15.85;100.00;101115.97;5275308;28;20042;-75
2024/04/08 00:19:39;;;;;;;9.82;2.03;;;;;;;15.80;100.00;101105.75;5269399;28;20069;-74
2024/04/08 00:22:10;;;;;;;4.25;1.63;;;;;;;15.81;100.00;101107.41;5283799;28;20022;-75
2024/04/08 00:24:42;;;;;;;3.63;1.60;;;;;;;15.85;100.00;101116.81;5275252;27;20027;-77
2024/04/08 00:27:12;;;;;;;12.10;1.92;;;;;;;15.85;100.00;101121.38;5279869;28;20092;-74
2024/04/08 00:29:43;;;;;;;9.23;2.00;;;;;;;15.88;100.00;101132.66;5266296;28;20489;-74
2024/04/08 00:32:13;;;;;;;3.05;1.92;;;;;;;15.93;100.00;101132.91;5273880;28;20027;-74
2024/04/08 00:34:44;;;;;;;4.68;2.00;;;;;;;15.97;100.00;101115.28;5279736;28;20027;-75
2024/04/08 00:37:14;;;;;;;7.60;1.95;;;;;;;15.99;100.00;101105.06;5276588;27;20016;-74
2024/04/08 00:39:46;;;;;;;5.07;2.28;;;;;;;15.99;100.00;101110.50;5277616;28;20027;-74
2024/04/08 00:42:16;;;;;;;5.70;2.35;;;;;;;16.01;100.00;101110.28;5279129;28;20015;-75
2024/04/08 00:44:47;;;;;;;10.90;1.90;;;;;;;16.03;100.00;101109.06;5279396;28;20027;-74
2024/04/08 00:47:17;;;;;;;5.53;2.08;;;;;;;16.05;100.00;101108.88;5277623;28;20024;-74
2024/04/08 00:49:48;;;;;;;5.57;2.22;;;;;;;16.04;100.00;101107.19;5278361;28;20472;-75
2024/04/08 00:52:19;;;;;;;4.70;1.98;;;;;;;16.03;100.00;101100.13;5275981;28;20069;-74
2024/04/08 00:54:50;;;;;;;6.03;1.70;;;;;;;16.03;100.00;101105.53;5276871;28;20023;-76
2024/04/08 00:57:20;;;;;;;4.97;1.88;;;;;;;16.03;100.00;101103.66;5274836;28;20054;-75
2024/04/08 00:59:51;;;;;;;4.60;2.28;;;;;;;16.07;100.00;101098.69;5273863;28;20040;-74
2024/04/08 01:02:23;;;;;;;5.32;2.47;;;;;;;16.06;100.00;101099.72;5274904;28;20020;-74
2024/04/08 01:04:54;;;;;;;8.15;2.70;;;;;;;16.07;100.00;101120.34;5272267;28;20446;-74
2024/04/08 01:07:24;;;;;;;5.68;1.80;;;;;;;16.07;100.00;101125.75;5277564;28;20028;-77
2024/04/08 01:09:55;;;;;;;7.78;2.30;;;;;;;16.05;100.00;101131.34;5278419;28;20058;-75
2024/04/08 01:12:26;;;;;;;8.75;2.35;;;;;;;16.03;100.00;101122.59;5278195;28;20019;-74
2024/04/08 01:14:56;;;;;;;10.13;2.30;;;;;;;16.03;100.00;101119.06;5269484;28;20481;-76
2024/04/08 01:17:27;;;;;;;7.40;2.65;;;;;;;15.97;100.00;101100.91;5274297;28;20080;-75
2024/04/08 01:19:58;;;;;;;8.93;2.65;;;;;;;15.90;100.00;101102.69;5275015;28;20281;-76
2024/04/08 01:22:31;;;;;;;5.25;2.35;;;;;;;15.78;100.00;101097.81;5280787;28;20076;-74
2024/04/08 01:25:04;;;;;;;9.55;2.53;;;;;;;15.70;100.00;101089.84;5275075;28;20031;-74
2024/04/08 01:27:34;;;;;;;9.63;2.40;;;;;;;15.68;100.00;101083.78;5277548;28;20024;-74
2024/04/08 01:30:06;;;;;;;8.23;2.67;;;;;;;15.63;100.00;101083.53;5274677;28;20012;-77
2024/04/08 01:32:37;;;;;;;7.40;2.45;;;;;;;15.61;100.00;101079.31;5274722;28;20031;-78
2024/04/08 01:35:07;;;;;;;5.82;2.75;;;;;;;15.59;100.00;101065.16;5275739;28;20019;-75
2024/04/08 01:37:38;;;;;;;5.43;3.10;;;;;;;15.59;100.00;101062.44;5271291;27;20058;-75
2024/04/08 01:40:09;;;;;;;7.68;3.40;;;;;;;15.60;100.00;101056.84;5279754;28;20012;-75
2024/04/08 01:42:39;;;;;;;5.22;2.92;;;;;;;15.58;100.00;101052.66;5277464;28;20080;-77
2024/04/08 01:45:10;;;;;;;11.35;3.00;;;;;;;15.58;100.00;101053.50;5278335;28;20016;-75
2024/04/08 01:47:41;;;;;;;8.73;2.90;;;;;;;15.54;100.00;101049.50;5278377;28;20034;-75
2024/04/08 01:50:12;;;;;;;4.68;2.72;;;;;;;15.43;100.00;101058.16;5274891;28;20021;-75
2024/04/08 01:52:43;;;;;;;7.65;3.00;;;;;;;15.45;100.00;101058.78;5271644;28;20035;-75
2024/04/08 01:55:13;;;;;;;6.57;3.03;;;;;;;15.39;100.00;101040.63;5278529;28;20102;-76
2024/04/08 01:57:44;;;;;;;8.23;2.92;;;;;;;15.38;100.00;101038.97;5259192;27;21127;-75
2024/04/08 02:00:15;;;;;;;12.05;3.28;;;;;;;15.34;100.00;101024.16;5276370;28;20016;-74
2024/04/08 02:02:46;;;;;;;11.05;3.85;;;;;;;15.37;100.00;101010.25;5278783;28;20085;-76
2024/04/08 02:05:17;;;;;;;7.47;3.45;;;;;;;15.38;100.00;101001.94;5268974;28;20024;-75
2024/04/08 02:07:50;;;;;;;6.20;3.55;;;;;;;15.40;100.00;101016.09;5276551;28;20031;-77
2024/04/08 02:10:22;;;;;;;7.85;3.17;;;;;;;15.39;100.00;101029.81;5281095;28;20054;-75
2024/04/08 02:12:53;;;;;;;9.13;3.53;;;;;;;15.39;100.00;101051.44;5275462;28;20381;-76
2024/04/08 02:15:24;;;;;;;5.72;3.40;;;;;;;15.39;100.00;101046.88;5280324;28;20041;-76
2024/04/08 02:17:57;;;;;;;7.32;3.63;;;;;;;15.35;100.00;101061.78;5271044;27;20031;-75
2024/04/08 02:20:29;;;;;;;9.18;3.40;;;;;;;15.40;100.00;101070.16;5271574;28;20024;-75
2024/04/08 02:23:00;;;;;;;11.60;3.80;;;;;;;15.46;100.00;101080.22;5274912;28;20478;-77
2024/04/08 02:25:30;;;;;;;7.82;3.28;;;;;;;15.50;100.00;101072.56;5277701;28;20030;-75
2024/04/08 02:28:01;;;;;;;11.20;3.17;;;;;;;15.50;100.00;101061.75;5272998;28;20786;-74
2024/04/08 02:30:35;;;;;;;9.60;3.47;;;;;;;15.47;100.00;101062.97;5268972;28;20031;-75
2024/04/08 02:33:06;;;;;;;9.48;3.35;;;;;;;15.42;100.00;101056.47;5279947;28;20469;-76
2024/04/08 02:35:37;;;;;;;8.43;2.92;;;;;;;15.38;100.00;101052.47;5284242;28;20038;-74
2024/04/08 02:38:08;;;;;;;10.43;3.30;;;;;;;15.36;100.00;101041.88;5279025;28;20028;-77
2024/04/08 02:40:39;;;;;;;9.13;3.45;;;;;;;15.33;100.00;101038.69;5281064;28;20020;-74
2024/04/08 02:43:09;;;;;;;9.82;4.05;;;;;;;15.27;100.00;101041.16;5286622;28;20513;-75
2024/04/08 02:45:40;;;;;;;10.15;3.40;;;;;;;15.24;100.00;101025.31;5278545;28;20076;-75
2024/04/08 02:48:10;;;;;;;15.48;4.07;;;;;;;15.22;100.00;101016.56;5284608;28;20020;-78
2024/04/08 02:50:41;;;;;;;10.07;4.35;;;;;;;15.21;100.00;101006.78;5275847;28;20358;-75
2024/04/08 02:53:12;;;;;;;8.32;4.05;;;;;;;15.20;100.00;101007.78;5273449;28;20591;-76
2024/04/08 02:55:43;;;;;;;12.27;4.15;;;;;;;15.15;100.00;101001.28;5283258;28;20036;-77
2024/04/08 02:58:13;;;;;;;12.13;4.20;;;;;;;15.15;100.00;101001.28;5271679;28;20032;-75
2024/04/08 03:00:44;;;;;;;13.95;4.75;;;;;;;15.13;100.00;100995.25;5281808;28;20019;-75
2024/04/08 03:03:14;;;;;;;12.18;4.22;;;;;;;15.09;100.00;101004.78;5277176;28;20045;-76
2024/04/08 03:05:45;;;;;;;9.57;3.72;;;;;;;15.07;100.00;101010.38;5280605;28;20393;-75
2024/04/08 03:08:16;;;;;;;7.20;4.05;;;;;;;15.05;100.00;101006.19;5280452;28;20027;-75
2024/04/08 03:10:46;;;;;;;13.02;4.10;;;;;;;15.05;100.00;100995.38;5282210;27;20524;-75
2024/04/08 03:13:16;;;;;;;11.38;4.40;;;;;;;15.02;100.00;101008.25;5278467;28;20026;-77
2024/04/08 03:15:53;;;;;;;9.45;3.55;;;;;;;14.97;100.00;100990.94;5281393;28;20488;-75
2024/04/08 03:18:24;;;;;;;11.25;4.43;;;;;;;14.96;100.00;100967.63;5276512;28;20016;-74
2024/04/08 03:20:56;;;;;;;9.02;4.07;;;;;;;14.96;100.00;100964.94;5278681;28;20041;-74
2024/04/08 03:23:27;;;;;;;10.27;4.32;;;;;;;14.92;100.00;100972.59;5277021;28;20035;-77
2024/04/08 03:26:00;;;;;;;9.57;3.47;;;;;;;14.81;100.00;100964.16;5275017;28;20024;-75
2024/04/08 03:28:31;;;;;;;7.07;3.45;;;;;;;14.74;100.00;100953.28;5273963;28;20080;-77
2024/04/08 03:31:03;;;;;;;7.35;3.20;;;;;;;14.68;100.00;100949.50;5281070;28;20032;-75
2024/04/08 03:33:34;;;;;;;12.23;4.15;;;;;;;14.59;100.00;100952.50;5278859;28;20023;-74
2024/04/08 03:36:11;;;;;;;11.40;3.72;;;;;;;14.50;100.00;100941.78;5280190;28;20034;-74
2024/04/08 03:38:44;;;;;;;12.35;3.72;;;;;;;14.45;100.00;100946.06;5268895;28;20024;-75
2024/04/08 03:41:14;;;;;;;6.40;3.35;;;;;;;14.44;100.00;100931.72;5259502;28;20016;-74
2024/04/08 03:43:45;;;;;;;6.15;3.10;;;;;;;14.43;100.00;100934.63;5263781;28;20030;-74
2024/04/08 03:46:15;;;;;;;8.15;3.75;;;;;;;14.39;100.00;100941.41;5265815;28;20469;-76
2024/04/08 03:48:46;;;;;;;8.40;4.20;;;;;;;14.32;100.00;100940.50;5263692;28;20028;-75
2024/04/08 03:51:18;;;;;;;6.75;3.22;;;;;;;14.27;100.00;100938.38;5265509;28;20579;-75
2024/04/08 03:53:48;;;;;;;7.72;4.10;;;;;;;14.23;100.00;100939.78;5264999;28;20065;-74
2024/04/08 03:56:19;;;;;;;7.30;3.15;;;;;;;14.18;100.00;100956.53;5266317;28;20477;-74
2024/04/08 03:58:49;;;;;;;9.07;4.15;;;;;;;14.14;100.00;100959.78;5260381;28;20027;-74
2024/04/08 04:01:20;;;;;;;7.32;3.28;;;;;;;14.06;100.00;100949.09;5265195;28;20363;-76
2024/04/08 04:03:51;;;;;;;7.80;3.40;;;;;;;13.97;100.00;100953.75;5265050;28;20058;-75
2024/04/08 04:06:21;;;;;;;6.80;2.78;;;;;;;13.87;100.00;100964.81;5265247;28;20058;-74
2024/04/08 04:08:52;;;;;;;7.38;3.10;;;;;;;13.78;100.00;100967.75;5263778;28;20495;-76
2024/04/08 04:11:25;;;;;;;8.60;3.95;;;;;;;13.75;100.00;100971.66;5264887;28;20490;-77
2024/04/08 04:13:56;;;;;;;8.90;4.18;;;;;;;13.79;100.00;100967.56;5264568;28;20570;-76
2024/04/08 04:16:26;;;;;;;9.07;3.35;;;;;;;13.85;100.00;100974.09;5263932;28;20024;-75
2024/04/08 04:18:57;;;;;;;12.68;4.25;;;;;;;13.91;100.00;100978.75;5269229;28;20473;-74
2024/04/08 04:21:27;;;;;;;11.50;4.72;;;;;;;13.95;100.00;100971.94;5264951;28;20039;-74
2024/04/08 04:23:58;;;;;;;8.43;4.03;;;;;;;13.94;100.00;100954.09;5273868;28;20131;-75
2024/04/08 04:26:28;;;;;;;11.15;4.20;;;;;;;13.91;100.00;100965.28;5264587;28;20023;-74
2024/04/08 04:28:59;;;;;;;9.63;4.07;;;;;;;13.84;100.00;100975.13;5271001;28;20100;-75
2024/04/08 04:31:43;;;;;;;6.75;3.45;;;;;;;13.77;100.00;100980.41;5265030;28;20043;-74
2024/04/08 04:34:13;;;;;;;7.07;3.80;;;;;;;13.68;100.00;101003.91;5267003;28;20027;-75
2024/04/08 04:36:45;;;;;;;4.93;3.15;;;;;;;13.60;100.00;101013.91;5269234;28;20023;-76
2024/04/08 04:39:15;;;;;;;11.43;4.20;;;;;;;13.60;100.00;101019.31;5263364;28;20466;-74
2024/04/08 04:41:49;;;;;;;13.10;5.30;;;;;;;13.66;100.00;101016.75;5264852;28;20035;-75
2024/04/08 04:44:20;;;;;;;9.70;4.68;;;;;;;13.78;100.00;101019.84;5257539;28;20016;-74
2024/04/08 04:46:50;;;;;;;9.32;4.28;;;;;;;13.87;100.00;101021.44;5264808;28;20058;-74
2024/04/08 04:49:21;;;;;;;11.98;4.45;;;;;;;13.98;100.00;101020.16;5268268;28;20035;-75
2024/04/08 04:51:51;;;;;;;7.18;4.32;;;;;;;14.09;100.00;101011.59;5267924;28;20362;-74
2024/04/08 04:54:22;;;;;;;12.45;4.85;;;;;;;14.19;100.00;100992.44;5264831;28;20023;-74
2024/04/08 04:56:52;;;;;;;12.00;4.47;;;;;;;14.23;100.00;100975.69;5265596;28;21218;-75
2024/04/08 04:59:23;;;;;;;10.40;4.50;;;;;;;14.21;100.00;100948.06;5275625;28;20505;-75
2024/04/08 05:01:53;;;;;;;9.00;3.88;;;;;;;14.20;100.00;100940.97;5264941;28;20020;-75
2024/04/08 05:04:24;;;;;;;17.08;4.20;;;;;;;14.17;100.00;100930.56;5269997;28;20656;-74
2024/04/08 05:06:54;;;;;;;9.52;4.22;;;;;;;14.19;100.00;100944.69;5262785;28;20031;-74
2024/04/08 05:09:25;;;;;;;10.13;4.25;;;;;;;14.18;100.00;100947.59;5267077;28;20039;-76
2024/04/08 05:11:56;;;;;;;8.00;3.80;;;;;;;14.18;100.00;100959.22;5265549;28;20031;-75
2024/04/08 05:14:26;;;;;;;9.32;4.00;;;;;;;14.16;100.00;100949.66;5272408;28;20031;-74
2024/04/08 05:16:57;;;;;;;6.40;3.47;;;;;;;14.15;100.00;100931.78;5264940;28;20086;-74
2024/04/08 05:19:27;;;;;;;9.52;3.90;;;;;;;14.18;100.00;100937.63;5263672;28;20019;-74
2024/04/08 05:21:58;;;;;;;10.05;4.13;;;;;;;14.24;100.00;100946.84;5265286;28;20036;-74
2024/04/08 05:24:29;;;;;;;7.45;3.90;;;;;;;14.31;100.00;100958.56;5265161;28;20016;-75
2024/04/08 05:27:00;;;;;;;8.90;4.25;;;;;;;14.35;100.00;100965.25;5263607;28;20106;-76
2024/04/08 05:29:30;;;;;;;12.40;4.47;;;;;;;14.38;100.00;100964.03;5264069;28;20020;-74
2024/04/08 05:32:01;;;;;;;9.20;4.28;;;;;;;14.41;100.00;100969.91;5265758;28;20032;-74
2024/04/08 05:34:31;;;;;;;7.57;4.18;;;;;;;14.42;100.00;100971.56;5263119;28;20027;-76
2024/04/08 05:37:02;;;;;;;14.68;4.15;;;;;;;14.40;100.00;100965.50;5264757;28;20024;-74
2024/04/08 05:39:32;;;;;;;7.60;4.00;;;;;;;14.39;100.00;100968.41;5265089;28;20056;-74
2024/04/08 05:42:03;;;;;;;12.63;3.88;;;;;;;14.41;100.00;100972.63;5264341;28;20016;-74
2024/04/08 05:44:34;;;;;;;7.90;4.30;;;;;;;14.46;100.00;100972.03;5264146;28;20381;-74
2024/04/08 05:47:04;;;;;;;7.63;3.95;;;;;;;14.55;100.00;100967.38;5259969;28;20030;-74
2024/04/08 05:49:35;;;;;;;10.25;3.88;;;;;;;14.59;100.00;100966.00;5260713;28;20028;-74
2024/04/08 05:52:05;;;;;;;9.55;4.30;;;;;;;14.64;100.00;100977.06;5271626;28;20542;-74
2024/04/08 05:54:36;;;;;;;9.85;4.40;;;;;;;14.65;100.00;100978.72;5257350;28;20024;-76
2024/04/08 05:57:06;;;;;;;8.55;4.30;;;;;;;14.64;100.00;100960.84;5261432;28;20515;-74
2024/04/08 05:59:38;;;;;;;11.77;4.57;;;;;;;14.62;100.00;100963.75;5261388;28;20093;-74
2024/04/08 06:02:10;;;;;;;8.75;4.82;;;;;;;14.63;100.00;100951.91;5264316;28;20024;-74
2024/04/08 06:05:58;;;;;;;11.38;4.20;;;;;;;14.69;100.00;100958.41;5690664;25;20353;-73
2024/04/08 06:08:29;;;;;;;8.93;4.50;;;;;;;14.74;100.00;100964.09;5691084;25;20345;-73
2024/04/08 06:11:03;;;;;;;9.23;4.10;;;;;;;14.78;100.00;100962.69;5691347;25;20074;-73
2024/04/08 06:13:33;;;;;;;8.05;4.22;;;;;;;14.86;100.00;100964.41;5681801;25;20008;-73
2024/04/08 06:16:04;;;;;;;8.52;4.93;;;;;;;14.95;100.00;100965.97;5683889;25;20013;-73
2024/04/08 06:18:34;;;;;;;8.70;4.55;;;;;;;15.03;100.00;100963.16;5692346;25;20507;-73
2024/04/08 06:21:05;;;;;;;7.97;4.53;;;;;;;15.12;100.00;100956.59;5681076;25;20078;-73
2024/04/08 06:23:35;;;;;;;8.30;4.30;;;;;;;15.26;100.00;100960.25;5686187;25;19990;-74
2024/04/08 06:26:06;;;;;;;9.18;4.57;;;;;;;15.40;100.00;100962.03;5677057;25;20006;-74
2024/04/08 06:28:36;;;;;;;12.50;5.05;;;;;;;15.59;100.00;100965.09;5683107;25;20013;-74
2024/04/08 06:31:07;;;;;;;8.13;4.63;;;;;;;15.71;100.00;100974.38;5684002;25;20440;-74
2024/04/08 06:33:37;;;;;;;11.55;4.35;;;;;;;15.74;100.00;100971.28;5683234;25;20440;-74
2024/04/08 06:36:09;;;;;;;8.57;4.32;;;;;;;15.73;100.00;100975.03;5683522;25;20075;-74
2024/04/08 06:38:39;;;;;;;12.18;4.53;;;;;;;15.76;100.00;100989.00;5688044;25;20444;-74
2024/04/08 06:41:11;;;;;;;11.10;4.60;;;;;;;15.76;100.00;100972.78;5690894;25;20009;-73
2024/04/08 06:43:42;;;;;;;9.68;4.00;;;;;;;15.76;100.00;100971.91;5686442;25;20009;-74
2024/04/08 06:46:13;;;;;;;11.98;4.47;;;;;;;15.75;100.00;100968.38;5691726;25;20002;-74
2024/04/08 06:48:44;;;;;;;10.00;4.40;;;;;;;15.80;100.00;100973.19;5669690;25;20465;-73
2024/04/08 06:51:15;;;;;;;9.18;4.43;;;;;;;15.84;100.00;100973.63;5684168;25;19993;-74
2024/04/08 06:53:47;;;;;;;9.63;4.65;;;;;;;15.84;100.00;100960.13;5673919;25;19999;-73
2024/04/08 06:56:18;;;;;;;9.77;4.25;;;;;;;15.87;100.00;100938.09;5684321;25;20009;-74
2024/04/08 06:58:48;;;;;;;7.50;3.97;;;;;;;15.92;100.00;100924.81;5672682;25;20006;-73
2024/04/08 07:01:20;;;;;;;10.10;5.03;;;;;;;16.05;100.00;100920.28;5686289;25;20006;-73
2024/04/08 07:03:50;;;;;;;6.72;3.95;;;;;;;16.28;100.00;100924.56;5681932;25;20468;-73
2024/04/08 07:06:21;;;;;;;15.18;4.72;;;;;;;16.45;100.00;100935.88;5682048;25;20002;-73
2024/04/08 07:08:51;;;;;;;15.98;4.43;;;;;;;16.58;100.00;100936.75;5684348;25;20002;-74
2024/04/08 07:11:22;;;;;;;12.95;3.80;;;;;;;16.72;100.00;100948.50;5682873;25;20002;-74
2024/04/08 07:13:52;;;;;;;10.30;4.22;;;;;;;16.85;100.00;100954.97;5687077;25;19998;-73
2024/04/08 07:16:23;;;;;;;10.18;4.22;;;;;;;16.93;100.00;100950.22;5666074;25;20074;-73
2024/04/08 07:18:53;;;;;;;9.85;4.20;;;;;;;16.95;100.00;100952.72;5668828;26;20006;-73
2024/04/08 07:21:24;;;;;;;7.65;4.25;;;;;;;16.85;100.00;100941.44;5672502;26;19998;-73
2024/04/08 07:23:55;;;;;;;7.53;4.15;;;;;;;16.82;100.00;100932.69;5661203;26;20023;-73
2024/04/08 07:26:26;;;;;;;9.45;4.03;;;;;;;16.89;100.00;100926.44;5670206;26;19998;-73
2024/04/08 07:28:56;;;;;;;6.90;4.32;;;;;;;16.97;100.00;100913.53;5663014;26;20010;-72
2024/04/08 07:31:27;;;;;;;10.55;4.45;;;;;;;17.28;100.00;100925.66;5667962;26;20462;-74
2024/04/08 07:33:57;;;;;;;7.65;3.50;;;;;;;17.51;100.00;100915.19;5670596;26;20010;-72
2024/04/08 07:36:28;;;;;;;5.75;3.63;;;;;;;17.61;100.00;100901.19;5666323;26;20010;-73
2024/04/08 07:38:58;;;;;;;7.57;3.63;;;;;;;17.99;100.00;100901.38;5666004;26;20003;-72
2024/04/08 07:41:29;;;;;;;8.65;3.35;;;;;;;18.34;100.00;100909.16;5663226;26;20067;-72
2024/04/08 07:43:59;;;;;;;8.98;2.90;;;;;;;18.40;100.00;100907.47;5667296;26;20002;-73
2024/04/08 07:46:30;;;;;;;10.48;3.90;;;;;;;18.44;100.00;100901.38;5672827;26;20465;-72
2024/04/08 07:49:01;;;;;;;8.57;3.38;;;;;;;18.68;100.00;100899.84;5663053;26;20003;-72
2024/04/08 07:51:31;;;;;;;7.05;3.40;;;;;;;18.82;100.00;100901.38;5668381;26;20013;-72
2024/04/08 07:54:02;;;;;;;5.85;3.03;;;;;;;18.79;100.00;100892.88;5660232;26;20006;-73
2024/04/08 07:56:33;;;;;;;9.05;3.90;;;;;;;18.83;100.00;100894.09;5658515;26;20461;-72
2024/04/08 07:59:04;;;;;;;6.72;3.55;;;;;;;18.82;100.00;100890.53;5655172;26;20457;-72
2024/04/08 08:01:35;;;;;;;8.68;3.45;;;;;;;18.86;100.00;100885.50;5667419;26;19999;-72
2024/04/08 08:04:05;;;;;;;8.65;4.05;;;;;;;19.03;100.00;100889.34;5666709;26;19998;-73
2024/04/08 08:06:36;;;;;;;9.15;4.07;;;;;;;19.48;100.00;100901.91;5661448;26;20356;-72
2024/04/08 08:09:07;;;;;;;10.02;3.85;;;;;;;19.92;100.00;100896.25;5670417;26;19990;-72
2024/04/08 08:11:38;;;;;;;7.15;3.25;;;;;;;20.24;100.00;100890.66;5667595;26;20505;-72
2024/04/08 08:14:08;;;;;;;8.60;3.17;;;;;;;20.71;100.00;100881.88;5669252;26;20067;-72
2024/04/08 08:16:39;;;;;;;9.75;3.25;;;;;;;21.13;100.00;100893.59;5669290;26;20368;-73
2024/04/08 08:19:10;;;;;;;7.75;3.30;;;;;;;21.37;100.00;100906.22;5664162;26;20010;-73
2024/04/08 08:21:40;;;;;;;7.18;3.22;;;;;;;21.66;100.00;100912.66;5672818;26;20536;-73
2024/04/08 08:24:11;;;;;;;9.07;3.03;;;;;;;21.93;100.00;100923.06;5663703;26;20021;-73
2024/04/08 08:26:41;;;;;;;10.07;3.83;;;;;;;21.78;100.00;100929.00;5671122;26;20078;-72
2024/04/08 08:29:12;;;;;;;5.70;2.70;;;;;;;21.43;100.00;100913.47;5657514;26;20005;-73
2024/04/08 08:31:42;;;;;;;6.13;2.83;;;;;;;21.21;100.00;100910.44;5668568;26;20002;-72
2024/04/08 08:34:13;;;;;;;8.35;3.10;;;;;;;21.12;100.00;100911.03;5671687;26;20018;-73
2024/04/08 08:36:45;;;;;;;7.53;2.72;;;;;;;20.94;100.00;100912.78;5667913;26;20070;-73
2024/04/08 08:39:16;;;;;;;5.00;2.40;;;;;;;21.26;100.00;100914.38;5663598;26;20006;-72
2024/04/08 08:41:51;;;;;;;6.53;2.50;;;;;;;21.62;100.00;100908.72;5673059;26;20468;-72
2024/04/08 08:44:24;;;;;;;4.80;2.00;;;;;;;22.21;100.00;100892.28;5667613;26;20006;-73
2024/04/08 08:46:55;;;;;;;3.60;1.90;;;;;;;22.72;100.00;100893.28;5672302;26;20074;-73
2024/04/08 08:49:29;;;;;;;7.63;1.92;;;;;;;22.90;100.00;100893.09;5664736;26;19998;-73
2024/04/08 08:52:00;;;;;;;3.47;1.60;;;;;;;23.22;100.00;100887.88;5634254;26;19999;-73
2024/04/08 08:54:31;;;;;;;4.20;1.85;;;;;;;23.40;100.00;100883.25;5662980;26;20050;-73
2024/04/08 08:57:02;;;;;;;3.85;1.67;;;;;;;23.36;100.00;100887.56;5657560;26;20017;-73
2024/04/08 08:59:34;;;;;;;4.78;1.67;;;;;;;23.30;100.00;100888.56;5662264;26;19998;-73
2024/04/08 09:02:05;;;;;;;4.88;2.03;;;;;;;23.43;100.00;100886.28;5662617;26;20029;-73
2024/04/08 09:04:36;;;;;;;3.95;2.00;;;;;;;23.52;100.00;100889.44;5648909;26;19994;-73
2024/04/08 09:07:07;;;;;;;3.85;2.22;;;;;;;23.57;100.00;100894.16;5669035;26;19998;-73
2024/04/08 09:09:38;;;;;;;4.78;1.50;;;;;;;23.65;100.00;100905.56;5667090;26;20013;-73
2024/04/08 09:12:10;;;;;;;5.38;1.88;;;;;;;23.49;100.00;100896.25;5662377;26;19999;-74
2024/04/08 09:14:41;;;;;;;4.38;1.55;;;;;;;23.37;100.00;100889.19;5670802;26;20009;-74
2024/04/08 09:17:12;;;;;;;4.20;1.70;;;;;;;23.36;100.00;100882.06;5664014;26;20079;-74
2024/04/08 09:19:42;;;;;;;2.75;1.33;;;;;;;23.76;100.00;100876.41;5667431;26;20002;-75
2024/04/08 09:22:14;;;;;;;5.68;1.83;;;;;;;23.84;100.00;100878.69;5671857;26;20030;-75
2024/04/08 09:24:44;;;;;;;4.22;1.90;;;;;;;24.01;100.00;100874.00;5662576;26;19998;-74
2024/04/08 09:27:15;;;;;;;3.85;2.13;;;;;;;24.53;100.00;100872.69;5667230;26;19995;-75
2024/04/08 09:29:45;;;;;;;7.85;1.90;;;;;;;24.63;100.00;100863.75;5659975;26;20001;-75
2024/04/08 09:32:16;;;;;;;3.28;1.63;;;;;;;24.78;100.00;100859.22;5663306;26;19998;-75
2024/04/08 09:34:47;;;;;;;4.00;1.55;;;;;;;24.96;100.00;100860.78;5670860;26;20006;-75
2024/04/08 09:37:20;;;;;;;8.00;1.50;;;;;;;24.76;100.00;100877.88;5664696;26;20045;-74
2024/04/08 09:39:51;;;;;;;5.90;1.63;;;;;;;24.35;100.00;100881.22;5668005;26;20012;-74
2024/04/08 09:42:22;;;;;;;3.25;1.20;;;;;;;23.74;100.00;100892.22;5666387;26;20015;-73
2024/04/08 09:44:53;;;;;;;3.60;1.23;;;;;;;23.14;100.00;100887.44;5666015;26;20078;-72
2024/04/08 09:47:26;;;;;;;4.07;1.08;;;;;;;22.61;100.00;100885.97;5669692;26;20009;-72
2024/04/08 09:49:58;;;;;;;3.03;0.90;;;;;;;22.20;100.00;100886.00;5664372;26;20002;-73
2024/04/08 09:52:28;;;;;;;3.80;1.30;;;;;;;21.72;100.00;100889.03;5665451;26;20009;-72
2024/04/08 09:54:59;;;;;;;6.18;1.00;;;;;;;21.45;100.00;100881.31;5667133;26;20332;-72
2024/04/08 09:57:35;;;;;;;4.00;1.20;;;;;;;21.43;100.00;100886.16;5660775;26;20002;-72
2024/04/08 10:00:12;;;;;;;2.97;1.20;;;;;;;21.66;100.00;100870.88;5658114;26;19998;-72
2024/04/08 10:02:44;;;;;;;2.65;1.08;;;;;;;21.87;100.00;100862.03;5655537;26;19998;-73
2024/04/08 10:05:15;;;;;;;4.28;1.38;;;;;;;21.67;100.00;100864.34;5665618;26;20009;-72
2024/04/08 10:07:46;;;;;;;3.33;1.23;;;;;;;21.55;100.00;100874.44;5659817;26;19999;-72
2024/04/08 10:10:18;;;;;;;2.45;1.30;;;;;;;21.42;100.00;100859.94;5652058;26;20010;-73
2024/04/08 10:12:52;;;;;;;4.07;1.40;;;;;;;21.28;100.00;100863.94;5662389;26;20328;-72
2024/04/08 10:15:22;;;;;;;4.47;1.50;;;;;;;21.25;100.00;100849.97;5634423;26;20003;-72
2024/04/08 10:17:55;;;;;;;2.13;1.23;;;;;;;21.21;100.00;100849.59;5668796;26;20407;-72
2024/04/08 10:20:27;;;;;;;2.08;1.30;;;;;;;21.32;100.00;100851.53;5667306;26;20488;-73
2024/04/08 10:22:58;;;;;;;5.45;1.40;;;;;;;21.38;100.00;100847.03;5660842;26;20017;-72
2024/04/08 10:25:36;;;;;;;4.43;1.35;;;;;;;21.11;100.00;100842.00;5665959;26;20002;-72
2024/04/08 10:28:07;;;;;;;4.68;1.67;;;;;;;21.15;100.00;100826.84;5667161;26;19998;-72
2024/04/08 10:30:39;;;;;;;5.32;1.73;;;;;;;21.24;100.00;100815.56;5665572;26;20378;-73
2024/04/08 10:33:11;;;;;;;4.32;1.05;;;;;;;21.35;100.00;100807.41;5664826;26;20042;-72
2024/04/08 10:35:42;;;;;;;4.13;1.58;;;;;;;21.45;100.00;100807.63;5654147;26;20460;-73
2024/04/08 10:38:12;;;;;;;3.65;1.40;;;;;;;21.65;100.00;100803.69;5647273;26;20022;-72
2024/04/08 10:40:43;;;;;;;6.10;1.50;;;;;;;21.57;100.00;100799.41;5654213;26;20348;-73
2024/04/08 10:43:13;;;;;;;2.50;1.40;;;;;;;21.55;100.00;100804.31;5662607;26;19999;-73
2024/04/08 10:45:44;;;;;;;2.58;1.30;;;;;;;21.77;100.00;100798.19;5656495;26;20445;-73
2024/04/08 10:48:16;;;;;;;4.93;1.40;;;;;;;21.99;100.00;100796.50;5653498;26;20516;-73
2024/04/08 10:50:48;;;;;;;3.03;1.35;;;;;;;22.12;100.00;100789.91;5651945;26;20075;-73
2024/04/08 10:53:18;;;;;;;7.03;1.40;;;;;;;22.08;100.00;100785.97;5658447;26;20365;-73
2024/04/08 10:55:49;;;;;;;4.65;1.27;;;;;;;21.93;100.00;100789.25;5664938;26;20143;-72
2024/04/08 10:58:20;;;;;;;3.17;1.65;;;;;;;21.86;100.00;100766.72;5644111;26;20013;-72
2024/04/08 11:00:50;;;;;;;1.70;0.95;;;;;;;21.88;100.00;100767.28;5665299;26;20047;-72
2024/04/08 11:03:22;;;;;;;2.78;1.10;;;;;;;21.84;100.00;100779.75;5648762;26;20006;-72
2024/04/08 11:05:53;;;;;;;2.25;1.42;;;;;;;21.46;100.00;100787.47;5656250;26;20009;-72
2024/04/08 11:08:24;;;;;;;2.85;1.20;;;;;;;21.31;100.00;100789.03;5665586;26;19994;-72
2024/04/08 11:10:56;;;;;;;4.95;1.30;;;;;;;21.34;100.00;100791.28;5660510;26;20610;-73
2024/04/08 11:13:28;;;;;;;3.83;1.33;;;;;;;21.20;100.00;100783.31;5659658;26;20002;-73
2024/04/08 11:15:59;;;;;;;3.30;1.30;;;;;;;20.98;100.00;100770.50;5668176;26;20074;-72
2024/04/08 11:18:36;;;;;;;2.92;1.75;;;;;;;20.76;100.00;100762.06;5655553;26;19995;-73
2024/04/08 11:21:07;;;;;;;7.13;1.60;;;;;;;20.74;100.00;100756.03;5660208;26;19994;-73
2024/04/08 11:23:41;;;;;;;1.98;1.08;;;;;;;20.74;100.00;100751.41;5657177;26;20072;-72
2024/04/08 11:26:12;;;;;;;3.30;1.25;;;;;;;20.74;100.00;100740.50;5662810;26;20607;-72
2024/04/08 11:28:43;;;;;;;3.00;1.25;;;;;;;20.77;100.00;100750.91;5658450;26;20010;-72
2024/04/08 11:31:14;;;;;;;3.38;1.38;;;;;;;20.81;100.00;100751.28;5665586;26;20002;-72
2024/04/08 11:33:44;;;;;;;4.72;1.70;;;;;;;20.65;100.00;100752.81;5667192;26;19998;-72